createdAt,value
2023-03-13T00:00:52.391Z,3.80
2023-03-13T00:02:53.269Z,4.15
2023-03-13T00:04:54.192Z,3.90
2023-03-13T00:06:55.028Z,3.27
2023-03-13T00:08:56.132Z,3.65
2023-03-13T00:10:56.899Z,4.65
2023-03-13T00:12:57.830Z,3.15
2023-03-13T00:14:58.718Z,4.22
2023-03-13T00:17:00.361Z,2.60
2023-03-13T00:19:01.158Z,3.62
2023-03-13T00:21:06.669Z,1.98
2023-03-13T00:23:07.942Z,1.50
2023-03-13T00:25:08.922Z,3.20
2023-03-13T00:27:09.708Z,3.55
2023-03-13T00:29:11.102Z,1.22
2023-03-13T00:31:13.936Z,1.77
2023-03-13T00:33:14.857Z,2.75
2023-03-13T00:35:15.786Z,4.62
2023-03-13T00:37:16.679Z,4.70
2023-03-13T00:39:17.455Z,3.65
2023-03-13T00:41:19.628Z,3.80
2023-03-13T00:43:20.452Z,0.82
2023-03-13T00:45:21.444Z,2.20
2023-03-13T00:47:22.229Z,2.98
2023-03-13T00:49:23.021Z,4.65
2023-03-13T00:51:25.994Z,4.85
2023-03-13T00:53:27.073Z,3.58
2023-03-13T00:55:28.228Z,4.92
2023-03-13T00:57:29.084Z,3.20
2023-03-13T00:59:29.952Z,4.62
2023-03-13T01:01:34.150Z,3.08
2023-03-13T01:03:35.504Z,1.87
2023-03-13T01:05:36.449Z,1.75
2023-03-13T01:07:37.220Z,1.82
2023-03-13T01:09:38.052Z,2.98
2023-03-13T01:11:40.832Z,1.82
2023-03-13T01:13:42.233Z,1.37
2023-03-13T01:15:43.136Z,2.55
2023-03-13T01:17:44.067Z,1.55
2023-03-13T01:19:46.552Z,2.20
2023-03-13T01:21:47.738Z,3.72
2023-03-13T01:23:49.416Z,3.60
2023-03-13T01:25:50.320Z,2.33
2023-03-13T01:27:51.389Z,4.58
2023-03-13T01:29:52.191Z,5.10
2023-03-13T01:31:53.069Z,4.10
2023-03-13T01:33:55.365Z,2.83
2023-03-13T01:36:03.103Z,1.65
2023-03-13T01:38:04.242Z,3.72
2023-03-13T01:40:05.431Z,3.20
2023-03-13T01:42:06.377Z,1.62
2023-03-13T01:44:24.585Z,0.57
2023-03-13T01:46:28.706Z,1.55
2023-03-13T01:48:39.029Z,5.00
2023-03-13T01:50:40.002Z,2.58
2023-03-13T01:52:42.772Z,1.52
2023-03-13T01:54:47.450Z,1.92
2023-03-13T01:56:52.139Z,0.53
2023-03-13T01:58:53.286Z,4.80
2023-03-13T02:00:54.573Z,0.85
2023-03-13T02:02:57.401Z,1.35
2023-03-13T02:05:00.147Z,1.70
2023-03-13T02:07:02.916Z,0.65
2023-03-13T02:09:05.595Z,0.20
2023-03-13T02:11:09.702Z,1.47
2023-03-13T02:13:13.292Z,0.80
2023-03-13T02:15:18.648Z,2.20
2023-03-13T02:17:20.245Z,1.98
2023-03-13T02:19:26.057Z,2.02
2023-03-13T02:21:28.842Z,3.45
2023-03-13T02:23:33.434Z,1.32
2023-03-13T02:25:42.713Z,3.27
2023-03-13T02:27:44.718Z,2.70
2023-03-13T02:29:46.178Z,1.32
2023-03-13T02:31:47.942Z,1.22
2023-03-13T02:33:49.457Z,0.30
2023-03-13T02:35:52.507Z,1.98
2023-03-13T02:37:58.142Z,3.60
2023-03-13T02:40:03.434Z,4.47
2023-03-13T02:42:04.956Z,3.37
2023-03-13T02:44:07.616Z,3.50
2023-03-13T02:46:10.329Z,1.12
2023-03-13T02:48:13.122Z,1.27
2023-03-13T02:50:14.326Z,1.47
2023-03-13T02:52:20.182Z,4.60
2023-03-13T02:54:25.934Z,2.75
2023-03-13T02:56:28.714Z,3.08
2023-03-13T02:58:33.618Z,4.12
2023-03-13T03:00:34.964Z,2.47
2023-03-13T03:02:35.818Z,4.28
2023-03-13T03:04:37.053Z,3.27
2023-03-13T03:06:37.927Z,2.12
2023-03-13T03:08:40.902Z,2.60
2023-03-13T03:10:42.510Z,2.55
2023-03-13T03:12:43.585Z,4.03
2023-03-13T03:14:44.881Z,2.33
2023-03-13T03:16:46.049Z,1.42
2023-03-13T03:18:47.038Z,3.27
2023-03-13T03:20:47.919Z,1.50
2023-03-13T03:22:48.800Z,2.17
2023-03-13T03:24:49.675Z,5.12
2023-03-13T03:26:50.541Z,1.70
2023-03-13T03:28:53.233Z,0.35
2023-03-13T03:30:54.604Z,1.45
2023-03-13T03:32:55.725Z,4.05
2023-03-13T03:34:57.079Z,3.62
2023-03-13T03:36:58.482Z,4.75
2023-03-13T03:39:01.271Z,5.37
2023-03-13T03:41:02.547Z,3.45
2023-03-13T03:43:04.122Z,3.10
2023-03-13T03:45:05.810Z,2.52
2023-03-13T03:47:06.618Z,3.95
2023-03-13T03:49:09.470Z,2.60
2023-03-13T03:51:10.757Z,3.60
2023-03-13T03:53:13.596Z,0.93
2023-03-13T03:55:14.981Z,3.70
2023-03-13T03:57:17.945Z,2.15
2023-03-13T03:59:19.334Z,3.08
2023-03-13T04:01:22.125Z,2.17
2023-03-13T04:03:23.348Z,2.75
2023-03-13T04:05:26.293Z,2.35
2023-03-13T04:07:27.078Z,2.60
2023-03-13T04:09:30.938Z,3.92
2023-03-13T04:11:30.993Z,3.12
2023-03-13T04:13:32.233Z,3.50
2023-03-13T04:15:33.517Z,2.27
2023-03-13T04:17:34.707Z,4.05
2023-03-13T04:19:36.198Z,5.37
2023-03-13T04:21:39.003Z,2.25
2023-03-13T04:23:44.478Z,2.42
2023-03-13T04:25:47.061Z,3.83
2023-03-13T04:27:48.436Z,2.70
2023-03-13T04:29:49.920Z,2.10
2023-03-13T04:31:55.638Z,3.37
2023-03-13T04:34:07.628Z,3.37
2023-03-13T04:36:10.357Z,2.83
2023-03-13T04:38:23.021Z,3.10
2023-03-13T04:40:31.738Z,5.62
2023-03-13T04:42:34.505Z,3.55
2023-03-13T04:44:42.419Z,2.37
2023-03-13T04:46:47.880Z,1.35
2023-03-13T04:48:50.653Z,3.60
2023-03-13T04:50:59.295Z,3.98
2023-03-13T04:53:02.013Z,2.12
2023-03-13T04:55:08.288Z,2.45
2023-03-13T04:57:10.955Z,2.15
2023-03-13T04:59:14.055Z,0.85
2023-03-13T05:01:25.813Z,2.00
2023-03-13T05:03:28.632Z,2.50
2023-03-13T05:05:33.209Z,2.37
2023-03-13T05:07:38.768Z,2.70
2023-03-13T05:09:44.114Z,1.43
2023-03-13T05:11:46.792Z,2.10
2023-03-13T05:13:49.472Z,2.55
2023-03-13T05:15:52.266Z,2.20
2023-03-13T05:18:10.424Z,2.27
2023-03-13T05:20:16.251Z,1.45
2023-03-13T05:22:21.784Z,2.70
2023-03-13T05:24:42.033Z,1.62
2023-03-13T05:26:56.625Z,1.40
2023-03-13T05:29:15.862Z,2.50
2023-03-13T05:31:24.675Z,1.22
2023-03-13T05:33:33.545Z,1.87
2023-03-13T05:35:53.093Z,3.85
2023-03-13T05:37:58.731Z,0.95
2023-03-13T05:40:01.442Z,3.90
2023-03-13T05:42:04.324Z,0.68
2023-03-13T05:44:24.037Z,3.08
2023-03-13T05:46:43.602Z,1.30
2023-03-13T05:48:52.381Z,3.00
2023-03-13T05:51:12.491Z,2.42
2023-03-13T05:53:21.587Z,2.77
2023-03-13T05:55:27.217Z,2.77
2023-03-13T05:57:29.994Z,0.90
2023-03-13T05:59:49.276Z,1.85
2023-03-13T06:01:58.067Z,2.05
2023-03-13T06:04:04.119Z,2.00
2023-03-13T06:06:07.010Z,1.80
2023-03-13T06:08:21.901Z,2.40
2023-03-13T06:10:23.572Z,1.15
2023-03-13T06:12:24.433Z,1.35
2023-03-13T06:14:25.451Z,2.50
2023-03-13T06:16:28.324Z,1.37
2023-03-13T06:18:33.753Z,2.72
2023-03-13T06:20:34.640Z,2.75
2023-03-13T06:22:35.435Z,1.52
2023-03-13T06:24:36.201Z,1.67
2023-03-13T06:26:37.080Z,0.70
2023-03-13T06:28:37.854Z,1.35
2023-03-13T06:30:38.920Z,0.50
2023-03-13T06:32:39.936Z,2.15
2023-03-13T06:34:41.080Z,1.70
2023-03-13T06:36:42.064Z,2.08
2023-03-13T06:38:42.934Z,0.85
2023-03-13T06:40:44.238Z,0.85
2023-03-13T06:42:45.796Z,1.47
2023-03-13T06:44:46.666Z,2.85
2023-03-13T06:46:47.599Z,1.10
2023-03-13T06:48:48.916Z,1.80
2023-03-13T06:50:49.795Z,1.42
2023-03-13T06:52:50.577Z,1.42
2023-03-13T06:54:51.369Z,1.30
2023-03-13T06:56:52.160Z,0.55
2023-03-13T06:58:53.054Z,1.30
2023-03-13T07:00:53.967Z,0.90
2023-03-13T07:02:54.921Z,0.78
2023-03-13T07:04:55.807Z,0.65
2023-03-13T07:06:56.693Z,1.47
2023-03-13T07:08:57.589Z,1.25
2023-03-13T07:10:59.622Z,1.62
2023-03-13T07:13:00.896Z,2.22
2023-03-13T07:15:01.916Z,2.12
2023-03-13T07:17:02.840Z,1.00
2023-03-13T07:19:03.703Z,1.32
2023-03-13T07:21:04.847Z,1.72
2023-03-13T07:23:05.931Z,1.45
2023-03-13T07:25:07.716Z,0.90
2023-03-13T07:27:08.648Z,1.62
2023-03-13T07:29:09.664Z,1.32
2023-03-13T07:31:12.549Z,1.70
2023-03-13T07:33:13.433Z,2.30
2023-03-13T07:35:14.427Z,2.10
2023-03-13T07:37:16.202Z,1.72
2023-03-13T07:39:17.074Z,1.45
2023-03-13T07:41:18.784Z,1.40
2023-03-13T07:43:19.875Z,0.85
2023-03-13T07:45:20.736Z,0.70
2023-03-13T07:47:21.608Z,0.68
2023-03-13T07:49:22.543Z,0.98
2023-03-13T07:51:33.625Z,0.85
2023-03-13T07:53:27.898Z,1.20
2023-03-13T07:55:28.809Z,2.52
2023-03-13T07:57:30.096Z,1.00
2023-03-13T07:59:30.968Z,0.62
2023-03-13T08:01:31.975Z,1.67
2023-03-13T08:03:32.990Z,1.85
2023-03-13T08:05:33.887Z,1.47
2023-03-13T08:07:34.946Z,1.75
2023-03-13T08:09:35.746Z,1.22
2023-03-13T08:11:38.226Z,2.60
2023-03-13T08:13:40.511Z,1.40
2023-03-13T08:15:41.453Z,1.75
2023-03-13T08:17:42.405Z,0.78
2023-03-13T08:19:43.207Z,1.67
2023-03-13T08:21:44.069Z,1.17
2023-03-13T08:23:45.128Z,1.57
2023-03-13T08:25:46.566Z,2.08
2023-03-13T08:27:47.467Z,1.70
2023-03-13T08:29:48.581Z,2.47
2023-03-13T08:31:51.858Z,2.30
2023-03-13T08:33:52.958Z,1.35
2023-03-13T08:35:53.903Z,1.42
2023-03-13T08:37:54.734Z,2.60
2023-03-13T08:39:56.122Z,1.45
2023-03-13T08:41:57.113Z,1.70
2023-03-13T08:43:58.004Z,3.15
2023-03-13T08:45:58.886Z,2.70
2023-03-13T08:48:00.346Z,0.93
2023-03-13T08:50:01.441Z,2.85
2023-03-13T08:52:03.439Z,2.02
2023-03-13T08:54:04.868Z,1.42
2023-03-13T08:56:06.819Z,4.08
2023-03-13T08:58:07.797Z,1.27
2023-03-13T09:00:10.464Z,2.33
2023-03-13T09:02:11.398Z,3.05
2023-03-13T09:04:12.710Z,2.95
2023-03-13T09:06:13.662Z,2.55
2023-03-13T09:08:14.942Z,1.15
2023-03-13T09:10:15.998Z,2.05
2023-03-13T09:12:30.029Z,2.70
2023-03-13T09:14:19.473Z,1.00
2023-03-13T09:16:21.611Z,2.92
2023-03-13T09:18:22.834Z,1.12
2023-03-13T09:20:23.717Z,2.55
2023-03-13T09:22:24.644Z,1.15
2023-03-13T09:24:25.833Z,1.98
2023-03-13T09:26:27.016Z,1.80
2023-03-13T09:28:27.887Z,1.75
2023-03-13T09:30:28.678Z,3.65
2023-03-13T09:32:29.731Z,2.22
2023-03-13T09:34:31.331Z,1.15
2023-03-13T09:36:32.533Z,4.67
2023-03-13T09:38:33.649Z,1.95
2023-03-13T09:40:36.338Z,0.33
2023-03-13T09:42:39.010Z,2.70
2023-03-13T09:44:41.786Z,1.55
2023-03-13T09:46:50.903Z,1.40
2023-03-13T09:48:56.673Z,2.17
2023-03-13T09:50:59.468Z,1.22
2023-03-13T09:53:02.140Z,1.70
2023-03-13T09:55:21.612Z,2.33
2023-03-13T09:57:36.453Z,1.80
2023-03-13T09:59:42.972Z,1.10
2023-03-13T10:01:44.361Z,1.07
2023-03-13T10:03:47.168Z,2.50
2023-03-13T10:05:59.235Z,1.52
2023-03-13T10:08:02.239Z,1.92
2023-03-13T10:10:04.430Z,2.33
2023-03-13T10:12:08.345Z,1.27
2023-03-13T10:14:11.163Z,1.72
2023-03-13T10:16:18.982Z,1.65
2023-03-13T10:18:23.875Z,1.95
2023-03-13T10:20:26.396Z,2.22
2023-03-13T10:22:29.620Z,1.82
2023-03-13T10:24:32.593Z,1.30
2023-03-13T10:26:37.100Z,0.90
2023-03-13T10:28:37.974Z,1.07
2023-03-13T10:30:42.664Z,2.70
2023-03-13T10:32:43.496Z,3.22
2023-03-13T10:34:55.157Z,1.70
2023-03-13T10:36:57.637Z,1.60
2023-03-13T10:38:58.533Z,2.37
2023-03-13T10:41:10.690Z,1.27
2023-03-13T10:43:16.492Z,3.27
2023-03-13T10:45:19.083Z,2.45
2023-03-13T10:47:19.981Z,3.02
2023-03-13T10:49:22.684Z,2.37
2023-03-13T10:51:24.866Z,2.65
2023-03-13T10:53:27.642Z,1.98
2023-03-13T10:55:28.540Z,2.05
2023-03-13T10:57:30.831Z,1.60
2023-03-13T10:59:31.704Z,2.40
2023-03-13T11:01:44.039Z,1.35
2023-03-13T11:03:45.539Z,1.42
2023-03-13T11:05:57.562Z,1.02
2023-03-13T11:08:00.444Z,2.02
2023-03-13T11:10:03.262Z,0.50
2023-03-13T11:12:06.101Z,1.55
2023-03-13T11:14:08.116Z,1.60
2023-03-13T11:16:20.524Z,0.80
2023-03-13T11:18:26.687Z,1.20
2023-03-13T11:20:29.232Z,0.90
2023-03-13T11:22:47.174Z,2.10
2023-03-13T11:24:50.007Z,0.90
2023-03-13T11:27:03.856Z,2.20
2023-03-13T11:28:57.436Z,1.02
2023-03-13T11:31:00.201Z,1.20
2023-03-13T11:33:03.166Z,0.80
2023-03-13T11:35:05.945Z,2.02
2023-03-13T11:37:11.891Z,0.85
2023-03-13T11:39:32.923Z,0.78
2023-03-13T11:41:38.589Z,1.25
2023-03-13T11:43:42.508Z,1.55
2023-03-13T11:45:54.355Z,1.45
2023-03-13T11:48:06.299Z,1.00
2023-03-13T11:50:09.089Z,1.10
2023-03-13T11:52:14.998Z,0.70
2023-03-13T11:54:23.678Z,0.90
2023-03-13T11:56:29.233Z,0.68
2023-03-13T11:58:44.218Z,0.47
2023-03-13T12:00:56.165Z,1.00
2023-03-13T12:02:59.022Z,1.10
2023-03-13T12:05:01.909Z,0.65
2023-03-13T12:07:05.020Z,0.85
2023-03-13T12:09:07.821Z,0.53
2023-03-13T12:11:14.005Z,0.93
2023-03-13T12:13:22.681Z,0.60
2023-03-13T12:15:28.218Z,0.98
2023-03-13T12:17:30.965Z,0.50
2023-03-13T12:19:39.953Z,0.95
2023-03-13T12:21:48.970Z,0.40
2023-03-13T12:24:08.331Z,0.82
2023-03-13T12:26:14.400Z,0.98
2023-03-13T12:30:20.971Z,0.68
2023-03-13T12:32:35.893Z,0.60
2023-03-13T12:34:41.696Z,0.75
2023-03-13T12:36:50.308Z,0.50
2023-03-13T12:39:09.757Z,0.30
2023-03-13T12:41:23.385Z,0.60
2023-03-13T12:43:26.175Z,0.80
2023-03-13T12:45:28.866Z,0.95
2023-03-13T12:47:34.896Z,0.82
2023-03-13T12:49:54.582Z,0.90
2023-03-13T12:52:03.153Z,0.80
2023-03-13T12:54:06.236Z,1.17
2023-03-13T12:56:11.884Z,0.85
2023-03-13T12:58:14.732Z,0.85
2023-03-13T13:00:20.461Z,1.12
2023-03-13T13:02:23.153Z,1.10
2023-03-13T13:04:29.285Z,0.70
2023-03-13T13:08:38.858Z,0.60
2023-03-13T13:10:41.669Z,1.10
2023-03-13T13:12:44.252Z,0.60
2023-03-13T13:14:50.055Z,1.07
2023-03-13T13:16:55.314Z,1.02
2023-03-13T13:18:58.125Z,0.63
2023-03-13T13:21:07.092Z,0.65
2023-03-13T13:23:25.243Z,0.37
2023-03-13T13:25:28.021Z,0.80
2023-03-13T13:27:33.998Z,0.65
2023-03-13T13:29:37.243Z,0.70
2023-03-13T13:31:46.260Z,0.72
2023-03-13T13:33:47.350Z,0.82
2023-03-13T13:36:07.085Z,1.10
2023-03-13T13:38:19.167Z,0.30
2023-03-13T13:40:27.861Z,1.07
2023-03-13T13:42:30.816Z,0.65
2023-03-13T13:44:32.168Z,0.55
2023-03-13T13:46:33.600Z,1.02
2023-03-13T13:48:37.243Z,0.33
2023-03-13T13:50:38.221Z,0.45
2023-03-13T13:52:39.866Z,0.65
2023-03-13T13:54:45.642Z,0.50
2023-03-13T13:56:47.463Z,0.85
2023-03-13T13:58:49.037Z,0.57
2023-03-13T14:00:51.868Z,0.50
2023-03-13T14:02:53.857Z,0.70
2023-03-13T14:05:03.295Z,0.68
2023-03-13T14:07:05.201Z,0.50
2023-03-13T14:09:24.775Z,0.57
2023-03-13T14:11:33.649Z,0.70
2023-03-13T14:13:34.512Z,0.98
2023-03-13T14:15:35.517Z,0.80
2023-03-13T14:17:43.910Z,0.55
2023-03-13T14:19:44.716Z,1.30
2023-03-13T14:21:45.487Z,0.40
2023-03-13T14:23:46.427Z,0.98
2023-03-13T14:25:49.083Z,0.78
2023-03-13T14:27:50.757Z,1.07
2023-03-13T14:29:53.550Z,1.20
2023-03-13T14:31:56.404Z,0.65
2023-03-13T14:33:59.189Z,0.60
2023-03-13T14:36:00.641Z,0.95
2023-03-13T14:38:01.958Z,0.70
2023-03-13T14:40:17.254Z,0.57
2023-03-13T14:42:20.048Z,0.75
2023-03-13T14:44:22.860Z,0.50
2023-03-13T14:46:25.702Z,0.80
2023-03-13T14:48:28.740Z,1.17
2023-03-13T14:50:29.609Z,0.60
2023-03-13T14:52:31.798Z,0.68
2023-03-13T14:54:33.885Z,0.75
2023-03-13T14:56:35.963Z,0.80
2023-03-13T14:58:36.888Z,0.75
2023-03-13T15:00:39.686Z,0.37
2023-03-13T15:02:42.490Z,0.72
2023-03-13T15:04:59.054Z,1.12
2023-03-13T15:07:03.184Z,0.50
2023-03-13T15:09:08.854Z,0.35
2023-03-13T15:11:28.052Z,1.32
2023-03-13T15:13:36.321Z,1.10
2023-03-13T15:15:37.223Z,0.65
2023-03-13T15:17:37.985Z,0.75
2023-03-13T15:19:38.784Z,0.82
2023-03-13T15:21:40.448Z,1.27
2023-03-13T15:23:41.729Z,0.78
2023-03-13T15:25:42.664Z,0.78
2023-03-13T15:27:43.637Z,0.42
2023-03-13T15:29:45.013Z,0.42
2023-03-13T15:31:45.984Z,1.05
2023-03-13T15:33:47.977Z,0.40
2023-03-13T15:35:49.696Z,0.57
2023-03-13T15:37:50.874Z,1.20
2023-03-13T15:39:52.605Z,0.98
2023-03-13T15:41:53.481Z,0.40
2023-03-13T15:43:56.187Z,0.78
2023-03-13T15:45:57.070Z,0.60
2023-03-13T15:47:58.962Z,0.40
2023-03-13T15:49:59.884Z,0.33
2023-03-13T15:52:00.757Z,1.40
2023-03-13T15:54:01.631Z,0.53
2023-03-13T15:56:04.489Z,1.10
2023-03-13T15:58:05.992Z,0.82
2023-03-13T16:00:09.738Z,0.72
2023-03-13T16:02:14.832Z,0.62
2023-03-13T16:04:15.708Z,0.75
2023-03-13T16:06:19.177Z,0.70
2023-03-13T16:08:35.159Z,0.37
2023-03-13T16:10:28.310Z,0.72
2023-03-13T16:12:29.162Z,0.75
2023-03-13T16:14:30.050Z,2.70
2023-03-13T16:16:34.963Z,0.98
2023-03-13T16:18:35.532Z,0.42
2023-03-13T16:20:36.337Z,1.10
2023-03-13T16:22:37.129Z,0.72
2023-03-13T16:24:38.329Z,0.75
2023-03-13T16:26:39.334Z,0.60
2023-03-13T16:28:40.123Z,0.30
2023-03-13T16:30:43.196Z,0.47
2023-03-13T16:32:44.694Z,0.40
2023-03-13T16:34:45.742Z,1.27
2023-03-13T16:36:46.659Z,1.32
2023-03-13T16:38:47.818Z,0.70
2023-03-13T16:40:48.597Z,0.50
2023-03-13T16:42:49.564Z,0.50
2023-03-13T16:44:50.374Z,0.42
2023-03-13T16:47:04.786Z,0.40
2023-03-13T16:48:55.848Z,0.50
2023-03-13T16:50:56.726Z,0.50
2023-03-13T16:52:57.799Z,0.42
2023-03-13T16:54:58.797Z,0.50
2023-03-13T16:57:01.466Z,0.30
2023-03-13T16:59:03.457Z,0.37
2023-03-13T17:01:06.011Z,0.55
2023-03-13T17:03:07.094Z,0.80
2023-03-13T17:05:08.821Z,0.47
2023-03-13T17:07:11.652Z,0.40
2023-03-13T17:09:16.676Z,0.23
2023-03-13T17:11:18.650Z,0.45
2023-03-13T17:13:21.447Z,0.37
2023-03-13T17:15:22.653Z,0.47
2023-03-13T17:17:23.537Z,0.50
2023-03-13T17:19:24.883Z,0.30
2023-03-13T17:21:28.327Z,2.55
2023-03-13T17:23:31.437Z,0.75
2023-03-13T17:25:32.507Z,0.40
2023-03-13T17:27:33.913Z,0.85
2023-03-13T17:29:34.755Z,0.53
2023-03-13T17:31:39.190Z,0.40
2023-03-13T17:33:40.197Z,0.45
2023-03-13T17:35:41.165Z,1.12
2023-03-13T17:37:43.745Z,0.60
2023-03-13T17:39:45.250Z,0.28
2023-03-13T17:41:46.109Z,0.30
2023-03-13T17:43:46.981Z,0.72
2023-03-13T17:45:47.863Z,1.02
2023-03-13T17:47:49.531Z,0.35
2023-03-13T17:49:50.329Z,0.30
2023-03-13T17:51:51.220Z,0.30
2023-03-13T17:53:52.577Z,0.20
2023-03-13T17:55:53.510Z,0.82
2023-03-13T17:57:54.411Z,0.20
2023-03-13T17:59:55.276Z,0.20
2023-03-13T18:01:56.393Z,0.20
2023-03-13T18:03:58.964Z,0.20
2023-03-13T18:06:00.168Z,0.62
2023-03-13T18:08:00.940Z,0.30
2023-03-13T18:10:01.817Z,0.60
2023-03-13T18:12:02.833Z,0.25
2023-03-13T18:14:05.019Z,0.50
2023-03-13T18:16:13.614Z,0.47
2023-03-13T18:18:15.457Z,0.40
2023-03-13T18:20:21.267Z,0.20
2023-03-13T18:22:22.136Z,1.15
2023-03-13T18:24:22.920Z,0.30
2023-03-13T18:26:26.522Z,0.20
2023-03-13T18:28:27.498Z,0.40
2023-03-13T18:30:28.370Z,0.60
2023-03-13T18:32:29.281Z,1.35
2023-03-13T18:34:30.433Z,0.68
2023-03-13T18:36:31.292Z,0.57
2023-03-13T18:38:32.077Z,1.20
2023-03-13T18:40:33.156Z,1.25
2023-03-13T18:42:34.040Z,1.70
2023-03-13T18:44:34.830Z,0.33
2023-03-13T18:46:35.693Z,0.57
2023-03-13T18:48:36.565Z,0.42
2023-03-13T18:50:37.424Z,0.65
2023-03-13T18:52:38.329Z,1.07
2023-03-13T18:54:39.222Z,0.62
2023-03-13T18:56:40.209Z,1.40
2023-03-13T18:58:41.067Z,0.35
2023-03-13T19:00:42.039Z,0.95
2023-03-13T19:02:43.116Z,1.82
2023-03-13T19:04:44.604Z,0.93
2023-03-13T19:06:45.780Z,1.92
2023-03-13T19:08:47.668Z,0.90
2023-03-13T19:10:48.465Z,0.82
2023-03-13T19:12:49.614Z,2.37
2023-03-13T19:14:50.396Z,0.20
2023-03-13T19:16:52.928Z,0.20
2023-03-13T19:18:54.254Z,0.20
2023-03-13T19:20:55.264Z,0.95
2023-03-13T19:22:58.064Z,0.93
2023-03-13T19:24:58.942Z,0.40
2023-03-13T19:27:00.031Z,0.30
2023-03-13T19:29:01.404Z,0.20
2023-03-13T19:31:02.385Z,0.50
2023-03-13T19:33:03.429Z,0.53
2023-03-13T19:35:04.548Z,2.47
2023-03-13T19:37:05.597Z,0.20
2023-03-13T19:39:13.549Z,1.47
2023-03-13T19:41:14.915Z,1.05
2023-03-13T19:43:15.713Z,0.88
2023-03-13T19:45:17.017Z,0.85
2023-03-13T19:47:17.927Z,0.17
2023-03-13T19:49:19.816Z,0.62
2023-03-13T19:51:20.784Z,0.78
2023-03-13T19:53:21.654Z,0.53
2023-03-13T19:55:22.548Z,1.35
2023-03-13T19:57:23.339Z,0.30
2023-03-13T19:59:28.131Z,0.53
2023-03-13T20:01:29.703Z,0.93
2023-03-13T20:03:30.614Z,1.00
2023-03-13T20:05:31.486Z,1.45
2023-03-13T20:07:32.582Z,2.17
2023-03-13T20:09:35.492Z,0.42
2023-03-13T20:11:36.634Z,2.37
2023-03-13T20:13:39.651Z,1.02
2023-03-13T20:15:40.449Z,0.72
2023-03-13T20:17:41.302Z,0.47
2023-03-13T20:19:42.215Z,1.45
2023-03-13T20:21:43.016Z,1.52
2023-03-13T20:23:44.668Z,0.72
2023-03-13T20:25:45.577Z,4.62
2023-03-13T20:27:46.482Z,0.95
2023-03-13T20:29:47.386Z,0.95
2023-03-13T20:31:48.300Z,0.30
2023-03-13T20:33:49.288Z,0.75
2023-03-13T20:35:50.190Z,1.47
2023-03-13T20:37:52.582Z,0.57
2023-03-13T20:39:53.483Z,0.50
2023-03-13T20:41:55.567Z,0.28
2023-03-13T20:43:56.447Z,0.62
2023-03-13T20:45:58.683Z,1.47
2023-03-13T20:47:59.637Z,0.88
2023-03-13T20:50:00.722Z,0.37
2023-03-13T20:52:03.408Z,0.90
2023-03-13T20:54:04.523Z,0.20
2023-03-13T20:56:07.041Z,0.13
2023-03-13T20:58:08.239Z,0.35
2023-03-13T21:00:11.605Z,0.40
2023-03-13T21:02:12.598Z,0.30
2023-03-13T21:04:13.469Z,0.25
2023-03-13T21:06:15.746Z,0.20
2023-03-13T21:08:16.691Z,0.82
2023-03-13T21:10:18.545Z,0.85
2023-03-13T21:12:19.535Z,0.20
2023-03-13T21:14:20.416Z,1.05
2023-03-13T21:16:21.332Z,0.20
2023-03-13T21:18:22.149Z,0.30
2023-03-13T21:20:23.160Z,1.40
2023-03-13T21:22:26.034Z,0.65
2023-03-13T21:24:26.905Z,0.20
2023-03-13T21:26:27.692Z,1.17
2023-03-13T21:28:28.962Z,1.20
2023-03-13T21:30:29.796Z,0.80
2023-03-13T21:32:30.897Z,0.80
2023-03-13T21:34:31.746Z,0.78
2023-03-13T21:36:32.637Z,0.60
2023-03-13T21:38:33.858Z,0.10
2023-03-13T21:40:34.759Z,0.65
2023-03-13T21:42:36.748Z,0.55
2023-03-13T21:44:38.057Z,0.20
2023-03-13T21:46:38.864Z,0.42
2023-03-13T21:48:40.723Z,0.80
2023-03-13T21:50:41.607Z,0.68
2023-03-13T21:52:42.513Z,0.75
2023-03-13T21:54:43.375Z,0.75
2023-03-13T21:56:44.153Z,0.88
2023-03-13T21:58:45.045Z,3.90
2023-03-13T22:00:46.051Z,0.30
2023-03-13T22:02:46.952Z,0.75
2023-03-13T22:04:47.736Z,0.20
2023-03-13T22:06:48.507Z,0.40
2023-03-13T22:08:49.430Z,0.85
2023-03-13T22:10:51.656Z,1.40
2023-03-13T22:12:52.526Z,0.62
2023-03-13T22:14:54.133Z,0.75
2023-03-13T22:16:56.011Z,1.42
2023-03-13T22:18:56.795Z,0.40
2023-03-13T22:20:58.071Z,0.95
2023-03-13T22:22:58.936Z,1.15
2023-03-13T22:24:59.723Z,0.82
2023-03-13T22:27:00.617Z,0.55
2023-03-13T22:29:01.478Z,0.20
2023-03-13T22:31:03.248Z,0.53
2023-03-13T22:33:06.031Z,1.55
2023-03-13T22:35:07.733Z,1.57
2023-03-13T22:37:08.695Z,0.20
2023-03-13T22:39:09.504Z,1.12
2023-03-13T22:41:11.473Z,0.30
2023-03-13T22:43:12.485Z,1.17
2023-03-13T22:45:13.564Z,1.07
2023-03-13T22:47:14.334Z,0.20
2023-03-13T22:49:15.113Z,0.65
2023-03-13T22:51:16.073Z,0.47
2023-03-13T22:53:16.988Z,1.20
2023-03-13T22:55:17.927Z,1.42
2023-03-13T22:57:18.717Z,0.60
2023-03-13T22:59:19.572Z,1.57
2023-03-13T23:01:22.128Z,1.20
2023-03-13T23:03:23.658Z,0.85
2023-03-13T23:05:24.525Z,0.20
2023-03-13T23:07:27.632Z,0.75
2023-03-13T23:09:28.525Z,0.60
2023-03-13T23:11:29.492Z,0.93
2023-03-13T23:13:30.884Z,0.95
2023-03-13T23:15:43.074Z,0.20
2023-03-13T23:17:35.649Z,0.53
2023-03-13T23:19:36.510Z,0.72
2023-03-13T23:21:37.298Z,0.30
2023-03-13T23:23:38.666Z,1.27
2023-03-13T23:25:39.848Z,0.80
2023-03-13T23:27:41.135Z,0.72
2023-03-13T23:29:42.050Z,0.33
2023-03-13T23:31:42.824Z,0.33
2023-03-13T23:33:43.636Z,0.80
2023-03-13T23:35:45.427Z,0.30
2023-03-13T23:37:47.490Z,0.50
2023-03-13T23:39:48.308Z,0.20
2023-03-13T23:41:49.118Z,1.00
2023-03-13T23:43:50.014Z,0.35
2023-03-13T23:45:50.883Z,0.82
2023-03-13T23:47:52.660Z,0.78
2023-03-13T23:49:53.428Z,0.85
2023-03-13T23:51:54.225Z,0.80
2023-03-13T23:53:55.009Z,0.53
2023-03-13T23:55:57.287Z,0.75
2023-03-13T23:57:58.155Z,1.92
